Singelgracht — PCGM — position and weather

sailwx.info

Track history (hours):
 
Tides and Currents Weather Stations Pressure Air Temp Water Temp Dewpoint Dewpoint Depression Visibility Wind Speed Wind Dir Waves Ship Positions

Singelgracht

Last reported at 2017-Nov-20 00:29 UTC. Time now 2017-Nov-20 07:58 UTC.
Position N 48°57' W 057°57'.

Length 168 m; beam 25 m.

Type: Cargo ship. MMSI: 245546000.

Date/timePositionNaut miles runAvg speedWind from/ knotsBaromVisibWave heightAir tempDewpointWater temp
2017-Nov-20 00:29N 48°57' W 057°57'0 0.0
2017-Nov-19 23:59N 48°57' W 057°57'0 0.0
2017-Nov-19 23:29N 48°57' W 057°57'0 0.0
2017-Nov-19 22:59N 48°57' W 057°57'0 0.0
2017-Nov-19 22:29N 48°57' W 057°57'0 0.0
2017-Nov-19 21:59N 48°57' W 057°57'0 0.0
2017-Nov-19 21:29N 48°57' W 057°57'0 0.0
2017-Nov-19 20:59N 48°57' W 057°57'0 0.0
2017-Nov-19 20:29N 48°57' W 057°57'0 0.0
2017-Nov-19 19:59N 48°57' W 057°57'0 0.0
2017-Nov-19 19:29N 48°57' W 057°57'0 0.0
2017-Nov-19 19:00N 48°57' W 057°57'0 0.8
2017-Nov-19 18:30N 48°58' W 057°57'5 9.7
2017-Nov-19 18:00N 48°59' W 058°04'611.6
2017-Nov-19 17:31N 49°04' W 058°09'815.7
2017-Nov-19 17:00N 49°09' W 058°19'  
2017-Nov-16 22:05N 38°46' W 074°42'1 9.1
2017-Nov-16 22:00N 38°46' W 074°43'6 9.1
2017-Nov-16 21:20N 38°46' W 074°51'3 9.0
2017-Nov-16 20:59N 38°46' W 074°55'5 9.3
2017-Nov-16 20:29N 38°46' W 075°01'5 8.5
2017-Nov-16 19:51N 38°51' W 075°04'410.8
2017-Nov-16 19:29N 38°55' W 075°06'613.2
2017-Nov-16 19:00N 39°00' W 075°09'714.4
2017-Nov-16 18:31N 39°07' W 075°13'714.8
2017-Nov-16 18:01N 39°13' W 075°18'715.0
2017-Nov-16 17:31N 39°19' W 075°24'714.2
2017-Nov-16 17:01N 39°24' W 075°30'612.1
2017-Nov-16 16:31N 39°30' W 075°34'510.7
2017-Nov-16 16:01N 39°35' W 075°33'5 9.8
2017-Nov-16 15:31N 39°40' W 075°32'5 9.0
2017-Nov-16 15:01N 39°44' W 075°30'4 8.9
2017-Nov-16 14:31N 39°48' W 075°27'4 7.8
2017-Nov-16 14:00N 39°50' W 075°22'4 7.6
2017-Nov-16 13:30N 39°51' W 075°18'4 8.5
2017-Nov-16 13:01N 39°52' W 075°12'4 8.0
2017-Nov-16 12:30N 39°54' W 075°08'1 1.8
2017-Nov-16 11:59N 39°55' W 075°08'0 0.0
2017-Nov-16 11:29N 39°55' W 075°08'0 0.0
2017-Nov-16 10:59N 39°55' W 075°08'0 0.0
2017-Nov-16 10:29N 39°55' W 075°08'0 0.0
2017-Nov-16 09:59N 39°55' W 075°08'0 0.0
2017-Nov-16 09:29N 39°55' W 075°08'0 0.0
2017-Nov-16 08:59N 39°55' W 075°08'0 0.0
2017-Nov-16 08:29N 39°55' W 075°08'0 0.0
2017-Nov-16 07:59N 39°55' W 075°08'0 0.0
2017-Nov-16 07:29N 39°55' W 075°08'0 0.0
2017-Nov-16 06:59N 39°55' W 075°08'0 0.0
2017-Nov-16 06:29N 39°55' W 075°08'0 0.0
2017-Nov-16 05:59N 39°55' W 075°08'0 0.0
2017-Nov-16 05:29N 39°55' W 075°08'0 0.0
2017-Nov-16 04:59N 39°55' W 075°08'0 0.0
2017-Nov-16 04:29N 39°55' W 075°08'0 0.0
2017-Nov-16 03:59N 39°55' W 075°08'0 0.0
2017-Nov-16 03:29N 39°55' W 075°08'0 0.0
2017-Nov-16 02:59N 39°55' W 075°08'0 0.0
2017-Nov-16 02:29N 39°55' W 075°08'0 0.0
2017-Nov-16 01:59N 39°55' W 075°08'0 0.0
2017-Nov-16 01:26N 39°55' W 075°08'0 0.0
2017-Nov-16 00:59N 39°55' W 075°08'0 0.0
2017-Nov-16 00:29N 39°55' W 075°08'0 0.0
2017-Nov-15 23:59N 39°55' W 075°08'0 0.0
2017-Nov-15 23:29N 39°55' W 075°08'0 0.0
2017-Nov-15 22:59N 39°55' W 075°08'0 0.0
2017-Nov-15 22:29N 39°55' W 075°08'0 0.0
2017-Nov-15 21:59N 39°55' W 075°08'0 0.0
2017-Nov-15 21:29N 39°55' W 075°08'0 0.0
2017-Nov-15 20:59N 39°55' W 075°08'0 0.0
2017-Nov-15 20:29N 39°55' W 075°08'0 0.0
2017-Nov-15 19:59N 39°55' W 075°08'0 0.0
2017-Nov-15 19:29N 39°55' W 075°08'0 0.0
2017-Nov-15 18:59N 39°55' W 075°08'0 0.0
2017-Nov-15 18:29N 39°55' W 075°08'0 0.0
2017-Nov-15 17:58N 39°55' W 075°08'0 0.0
2017-Nov-15 17:28N 39°55' W 075°08'0 0.0
2017-Nov-15 16:58N 39°55' W 075°08'0 0.0
2017-Nov-15 16:28N 39°55' W 075°08'0 0.0
2017-Nov-15 15:58N 39°55' W 075°08'0 0.0
2017-Nov-15 15:28N 39°55' W 075°08'0 0.0
2017-Nov-15 14:58N 39°55' W 075°08'0 0.0
2017-Nov-15 14:28N 39°55' W 075°08'0 0.0
2017-Nov-15 13:58N 39°55' W 075°08'0 0.0
2017-Nov-15 13:28N 39°55' W 075°08'0 0.0
2017-Nov-15 12:58N 39°55' W 075°08'0 0.0
2017-Nov-15 12:28N 39°55' W 075°08'0 0.0
2017-Nov-15 11:58N 39°55' W 075°08'0 0.0
2017-Nov-15 11:28N 39°55' W 075°08'0 0.0
2017-Nov-15 10:58N 39°55' W 075°08'0 0.0
2017-Nov-15 10:28N 39°55' W 075°08'0 0.0
2017-Nov-15 09:58N 39°55' W 075°08'0 0.0
2017-Nov-15 09:28N 39°55' W 075°08'0 0.0
2017-Nov-15 08:58N 39°55' W 075°08'0 0.0
2017-Nov-15 08:28N 39°55' W 075°08'0 0.0
2017-Nov-15 07:58N 39°55' W 075°08'0 0.0
2017-Nov-15 07:28N 39°55' W 075°08'0 0.0
2017-Nov-15 06:58N 39°55' W 075°08'0 0.0
2017-Nov-15 06:28N 39°55' W 075°08'0 0.0
2017-Nov-15 05:58N 39°55' W 075°08'0 0.0
2017-Nov-15 05:28N 39°55' W 075°08'0 0.0
2017-Nov-15 04:58N 39°55' W 075°08'0 0.0
2017-Nov-15 04:28N 39°55' W 075°08'0 0.0
2017-Nov-15 03:58N 39°55' W 075°08'0 0.0
2017-Nov-15 03:28N 39°55' W 075°08'0 0.0
2017-Nov-15 02:58N 39°55' W 075°08'0 0.0
2017-Nov-15 02:28N 39°55' W 075°08'0 0.0
2017-Nov-15 01:58N 39°55' W 075°08'0 0.0
2017-Nov-15 01:28N 39°55' W 075°08'0 0.0
2017-Nov-15 00:58N 39°55' W 075°08'0 0.0
2017-Nov-15 00:28N 39°55' W 075°08'0 0.0
2017-Nov-14 23:58N 39°55' W 075°08'0 0.0
2017-Nov-14 23:28N 39°55' W 075°08'0 0.0
2017-Nov-14 22:58N 39°55' W 075°08'0 0.0
2017-Nov-14 22:28N 39°55' W 075°08'0 0.0
2017-Nov-14 21:58N 39°55' W 075°08'0 0.0
2017-Nov-14 21:31N 39°55' W 075°08'0 0.0
2017-Nov-14 20:58N 39°55' W 075°08'0 0.0
2017-Nov-14 20:31N 39°55' W 075°08'0 0.0
2017-Nov-14 20:00N 39°55' W 075°08'0 0.0
2017-Nov-14 19:31N 39°55' W 075°08'0 0.0
2017-Nov-14 19:01N 39°55' W 075°08'0 0.0
2017-Nov-14 18:31N 39°55' W 075°08'0 0.0
2017-Nov-14 18:00N 39°55' W 075°08'0 0.0
2017-Nov-14 17:30N 39°55' W 075°08'0 0.0
2017-Nov-14 17:00N 39°55' W 075°08'0 0.0
2017-Nov-14 16:30N 39°55' W 075°08'0 0.2
2017-Nov-14 16:01N 39°55' W 075°08'2 4.4
2017-Nov-14 15:31N 39°53' W 075°09'4 8.7
2017-Nov-14 15:00N 39°51' W 075°14'5 9.8
2017-Nov-14 14:30N 39°51' W 075°20'4 7.9
2017-Nov-14 14:00N 39°49' W 075°25'612.0
2017-Nov-14 13:31N 39°44' W 075°30'4 8.2
2017-Nov-14 13:00N 39°40' W 075°32'5 9.7
2017-Nov-14 12:30N 39°36' W 075°34'510.2
2017-Nov-14 12:00N 39°31' W 075°33'611.4
2017-Nov-14 11:30N 39°25' W 075°31'713.6
2017-Nov-14 11:01N 39°20' W 075°25'713.4
2017-Nov-14 10:31N 39°15' W 075°20'613.0
2017-Nov-14 10:01N 39°10' W 075°15'612.8
2017-Nov-14 09:31N 39°04' W 075°11'613.0
2017-Nov-14 09:01N 38°58' W 075°07'714.5
2017-Nov-14 08:30N 38°51' W 075°04'5 9.2
2017-Nov-14 08:00N 38°47' W 075°02'4 7.6
2017-Nov-14 07:30N 38°45' W 074°58'4 7.7
2017-Nov-14 07:00N 38°42' W 074°55'4 8.2
2017-Nov-14 06:30N 38°39' W 074°51'  
Track history (hours):
 
Tides and Currents Weather Stations Pressure Air Temp Water Temp Dewpoint Dewpoint Depression Visibility Wind Speed Wind Dir Waves Ship Positions

Singelgracht

Last reported at 2017-Nov-20 00:29 UTC. Time now 2017-Nov-20 07:58 UTC.
Position N 48°57' W 057°57'.

Length 168 m; beam 25 m.

Type: Cargo ship. MMSI: 245546000.

Date/timePositionNaut miles runAvg speedWind from/ knotsBaromVisibWave heightAir tempDewpointWater temp
2017-Nov-20 00:29N 48°57' W 057°57'0 0.0
2017-Nov-19 23:59N 48°57' W 057°57'0 0.0
2017-Nov-19 23:29N 48°57' W 057°57'0 0.0
2017-Nov-19 22:59N 48°57' W 057°57'0 0.0
2017-Nov-19 22:29N 48°57' W 057°57'0 0.0
2017-Nov-19 21:59N 48°57' W 057°57'0 0.0
2017-Nov-19 21:29N 48°57' W 057°57'0 0.0
2017-Nov-19 20:59N 48°57' W 057°57'0 0.0
2017-Nov-19 20:29N 48°57' W 057°57'0 0.0
2017-Nov-19 19:59N 48°57' W 057°57'0 0.0
2017-Nov-19 19:29N 48°57' W 057°57'0 0.0
2017-Nov-19 19:00N 48°57' W 057°57'0 0.8
2017-Nov-19 18:30N 48°58' W 057°57'5 9.7
2017-Nov-19 18:00N 48°59' W 058°04'611.6
2017-Nov-19 17:31N 49°04' W 058°09'815.7
2017-Nov-19 17:00N 49°09' W 058°19'  
2017-Nov-16 22:05N 38°46' W 074°42'1 9.1
2017-Nov-16 22:00N 38°46' W 074°43'6 9.1
2017-Nov-16 21:20N 38°46' W 074°51'3 9.0
2017-Nov-16 20:59N 38°46' W 074°55'5 9.3
2017-Nov-16 20:29N 38°46' W 075°01'5 8.5
2017-Nov-16 19:51N 38°51' W 075°04'410.8
2017-Nov-16 19:29N 38°55' W 075°06'613.2
2017-Nov-16 19:00N 39°00' W 075°09'714.4
2017-Nov-16 18:31N 39°07' W 075°13'714.8
2017-Nov-16 18:01N 39°13' W 075°18'715.0
2017-Nov-16 17:31N 39°19' W 075°24'714.2
2017-Nov-16 17:01N 39°24' W 075°30'612.1
2017-Nov-16 16:31N 39°30' W 075°34'510.7
2017-Nov-16 16:01N 39°35' W 075°33'5 9.8
2017-Nov-16 15:31N 39°40' W 075°32'5 9.0
2017-Nov-16 15:01N 39°44' W 075°30'4 8.9
2017-Nov-16 14:31N 39°48' W 075°27'4 7.8
2017-Nov-16 14:00N 39°50' W 075°22'4 7.6
2017-Nov-16 13:30N 39°51' W 075°18'4 8.5
2017-Nov-16 13:01N 39°52' W 075°12'4 8.0
2017-Nov-16 12:30N 39°54' W 075°08'1 1.8
2017-Nov-16 11:59N 39°55' W 075°08'0 0.0
2017-Nov-16 11:29N 39°55' W 075°08'0 0.0
2017-Nov-16 10:59N 39°55' W 075°08'0 0.0
2017-Nov-16 10:29N 39°55' W 075°08'0 0.0
2017-Nov-16 09:59N 39°55' W 075°08'0 0.0
2017-Nov-16 09:29N 39°55' W 075°08'0 0.0
2017-Nov-16 08:59N 39°55' W 075°08'0 0.0
2017-Nov-16 08:29N 39°55' W 075°08'0 0.0
2017-Nov-16 07:59N 39°55' W 075°08'0 0.0
2017-Nov-16 07:29N 39°55' W 075°08'0 0.0
2017-Nov-16 06:59N 39°55' W 075°08'0 0.0
2017-Nov-16 06:29N 39°55' W 075°08'0 0.0
2017-Nov-16 05:59N 39°55' W 075°08'0 0.0
2017-Nov-16 05:29N 39°55' W 075°08'0 0.0
2017-Nov-16 04:59N 39°55' W 075°08'0 0.0
2017-Nov-16 04:29N 39°55' W 075°08'0 0.0
2017-Nov-16 03:59N 39°55' W 075°08'0 0.0
2017-Nov-16 03:29N 39°55' W 075°08'0 0.0
2017-Nov-16 02:59N 39°55' W 075°08'0 0.0
2017-Nov-16 02:29N 39°55' W 075°08'0 0.0
2017-Nov-16 01:59N 39°55' W 075°08'0 0.0
2017-Nov-16 01:26N 39°55' W 075°08'0 0.0
2017-Nov-16 00:59N 39°55' W 075°08'0 0.0
2017-Nov-16 00:29N 39°55' W 075°08'0 0.0
2017-Nov-15 23:59N 39°55' W 075°08'0 0.0
2017-Nov-15 23:29N 39°55' W 075°08'0 0.0
2017-Nov-15 22:59N 39°55' W 075°08'0 0.0
2017-Nov-15 22:29N 39°55' W 075°08'0 0.0
2017-Nov-15 21:59N 39°55' W 075°08'0 0.0
2017-Nov-15 21:29N 39°55' W 075°08'0 0.0
2017-Nov-15 20:59N 39°55' W 075°08'0 0.0
2017-Nov-15 20:29N 39°55' W 075°08'0 0.0
2017-Nov-15 19:59N 39°55' W 075°08'0 0.0
2017-Nov-15 19:29N 39°55' W 075°08'0 0.0
2017-Nov-15 18:59N 39°55' W 075°08'0 0.0
2017-Nov-15 18:29N 39°55' W 075°08'0 0.0
2017-Nov-15 17:58N 39°55' W 075°08'0 0.0
2017-Nov-15 17:28N 39°55' W 075°08'0 0.0
2017-Nov-15 16:58N 39°55' W 075°08'0 0.0
2017-Nov-15 16:28N 39°55' W 075°08'0 0.0
2017-Nov-15 15:58N 39°55' W 075°08'0 0.0
2017-Nov-15 15:28N 39°55' W 075°08'0 0.0
2017-Nov-15 14:58N 39°55' W 075°08'0 0.0
2017-Nov-15 14:28N 39°55' W 075°08'0 0.0
2017-Nov-15 13:58N 39°55' W 075°08'0 0.0
2017-Nov-15 13:28N 39°55' W 075°08'0 0.0
2017-Nov-15 12:58N 39°55' W 075°08'0 0.0
2017-Nov-15 12:28N 39°55' W 075°08'0 0.0
2017-Nov-15 11:58N 39°55' W 075°08'0 0.0
2017-Nov-15 11:28N 39°55' W 075°08'0 0.0
2017-Nov-15 10:58N 39°55' W 075°08'0 0.0
2017-Nov-15 10:28N 39°55' W 075°08'0 0.0
2017-Nov-15 09:58N 39°55' W 075°08'0 0.0
2017-Nov-15 09:28N 39°55' W 075°08'0 0.0
2017-Nov-15 08:58N 39°55' W 075°08'0 0.0
2017-Nov-15 08:28N 39°55' W 075°08'0 0.0
2017-Nov-15 07:58N 39°55' W 075°08'0 0.0
2017-Nov-15 07:28N 39°55' W 075°08'0 0.0
2017-Nov-15 06:58N 39°55' W 075°08'0 0.0
2017-Nov-15 06:28N 39°55' W 075°08'0 0.0
2017-Nov-15 05:58N 39°55' W 075°08'0 0.0
2017-Nov-15 05:28N 39°55' W 075°08'0 0.0
2017-Nov-15 04:58N 39°55' W 075°08'0 0.0
2017-Nov-15 04:28N 39°55' W 075°08'0 0.0
2017-Nov-15 03:58N 39°55' W 075°08'0 0.0
2017-Nov-15 03:28N 39°55' W 075°08'0 0.0
2017-Nov-15 02:58N 39°55' W 075°08'0 0.0
2017-Nov-15 02:28N 39°55' W 075°08'0 0.0
2017-Nov-15 01:58N 39°55' W 075°08'0 0.0
2017-Nov-15 01:28N 39°55' W 075°08'0 0.0
2017-Nov-15 00:58N 39°55' W 075°08'0 0.0
2017-Nov-15 00:28N 39°55' W 075°08'0 0.0
2017-Nov-14 23:58N 39°55' W 075°08'0 0.0
2017-Nov-14 23:28N 39°55' W 075°08'0 0.0
2017-Nov-14 22:58N 39°55' W 075°08'0 0.0
2017-Nov-14 22:28N 39°55' W 075°08'0 0.0
2017-Nov-14 21:58N 39°55' W 075°08'0 0.0
2017-Nov-14 21:31N 39°55' W 075°08'0 0.0
2017-Nov-14 20:58N 39°55' W 075°08'0 0.0
2017-Nov-14 20:31N 39°55' W 075°08'0 0.0
2017-Nov-14 20:00N 39°55' W 075°08'0 0.0
2017-Nov-14 19:31N 39°55' W 075°08'0 0.0
2017-Nov-14 19:01N 39°55' W 075°08'0 0.0
2017-Nov-14 18:31N 39°55' W 075°08'0 0.0
2017-Nov-14 18:00N 39°55' W 075°08'0 0.0
2017-Nov-14 17:30N 39°55' W 075°08'0 0.0
2017-Nov-14 17:00N 39°55' W 075°08'0 0.0
2017-Nov-14 16:30N 39°55' W 075°08'0 0.2
2017-Nov-14 16:01N 39°55' W 075°08'2 4.4
2017-Nov-14 15:31N 39°53' W 075°09'4 8.7
2017-Nov-14 15:00N 39°51' W 075°14'5 9.8
2017-Nov-14 14:30N 39°51' W 075°20'4 7.9
2017-Nov-14 14:00N 39°49' W 075°25'612.0
2017-Nov-14 13:31N 39°44' W 075°30'4 8.2
2017-Nov-14 13:00N 39°40' W 075°32'5 9.7
2017-Nov-14 12:30N 39°36' W 075°34'510.2
2017-Nov-14 12:00N 39°31' W 075°33'611.4
2017-Nov-14 11:30N 39°25' W 075°31'713.6
2017-Nov-14 11:01N 39°20' W 075°25'713.4
2017-Nov-14 10:31N 39°15' W 075°20'613.0
2017-Nov-14 10:01N 39°10' W 075°15'612.8
2017-Nov-14 09:31N 39°04' W 075°11'613.0
2017-Nov-14 09:01N 38°58' W 075°07'714.5
2017-Nov-14 08:30N 38°51' W 075°04'5 9.2
2017-Nov-14 08:00N 38°47' W 075°02'4 7.6
2017-Nov-14 07:30N 38°45' W 074°58'4 7.7
2017-Nov-14 07:00N 38°42' W 074°55'4 8.2
2017-Nov-14 06:30N 38°39' W 074°51'  

Dump ship's entire track history